Time;durP1;ratioP1;P1;durP2;ratioP2;P2;SDS_P1;SDS_P2;PMS_P1;PMS_P2;Temp;Humidity;BMP_temperature;BMP_pressure;BME280_temperature;BME280_humidity;BME280_pressure;Samples;Min_cycle;Max_cycle;Signal;HPM_P1;HPM_P2
2022/05/22 00:00:55;;;;;;;2.17;1.08;;;13.10;94.00;;;;;;6202291;28;20126;-80
2022/05/22 00:03:57;;;;;;;1.23;0.77;;;13.10;94.10;;;;;;6202246;28;20549;-80
2022/05/22 00:06:58;;;;;;;1.48;0.93;;;13.00;94.20;;;;;;6203167;28;20054;-80
2022/05/22 00:10:01;;;;;;;3.50;1.10;;;12.90;94.10;;;;;;6202375;28;20133;-79
2022/05/22 00:13:04;;;;;;;2.53;0.98;;;12.80;94.30;;;;;;6202848;28;20042;-79
2022/05/22 00:19:28;;;;;;;2.72;1.67;;;12.80;94.40;;;;;;6227235;28;20046;-80
2022/05/22 00:22:30;;;;;;;2.33;0.77;;;12.70;94.50;;;;;;6226941;28;20148;-81
2022/05/22 00:25:31;;;;;;;3.05;1.92;;;12.80;94.50;;;;;;6227202;28;20070;-80
2022/05/22 00:28:35;;;;;;;2.80;0.88;;;12.80;94.50;;;;;;6227828;28;20136;-79
2022/05/22 00:31:36;;;;;;;1.80;0.80;;;12.80;94.50;;;;;;6227964;28;20382;-79
2022/05/22 00:34:39;;;;;;;3.25;0.88;;;12.70;94.40;;;;;;6231179;28;20139;-79
2022/05/22 00:37:41;;;;;;;1.48;0.70;;;12.80;94.40;;;;;;6229026;28;20052;-80
2022/05/22 00:40:43;;;;;;;2.22;1.17;;;12.70;94.40;;;;;;6229088;28;20065;-79
2022/05/22 00:43:49;;;;;;;1.80;1.15;;;12.70;94.30;;;;;;6212765;28;20502;-79
2022/05/22 00:46:51;;;;;;;1.73;0.95;;;12.80;94.60;;;;;;6203907;28;20058;-79
2022/05/22 00:49:59;;;;;;;1.42;0.90;;;12.70;94.30;;;;;;6203133;28;20046;-78
2022/05/22 00:53:01;;;;;;;1.95;0.80;;;12.70;94.40;;;;;;6203815;28;20510;-79
2022/05/22 00:56:07;;;;;;;1.77;1.00;;;12.60;94.40;;;;;;6203545;28;20413;-79
2022/05/22 00:59:13;;;;;;;1.88;0.70;;;12.60;94.30;;;;;;6203461;28;20502;-78
2022/05/22 01:02:15;;;;;;;1.90;0.98;;;12.50;94.10;;;;;;6203676;28;20048;-79
2022/05/22 01:05:17;;;;;;;4.03;1.23;;;12.40;94.40;;;;;;6203476;28;20433;-80
2022/05/22 01:08:19;;;;;;;1.88;1.00;;;12.40;94.30;;;;;;6203456;28;20445;-79
2022/05/22 01:11:24;;;;;;;1.83;1.00;;;12.40;94.30;;;;;;6203509;28;20053;-78
2022/05/22 01:14:29;;;;;;;2.42;1.02;;;12.40;94.40;;;;;;6203085;28;20070;-79
2022/05/22 01:17:31;;;;;;;2.15;0.90;;;12.30;94.30;;;;;;6202627;28;20228;-80
2022/05/22 01:20:33;;;;;;;2.72;0.80;;;12.30;94.20;;;;;;6203005;28;20062;-78
2022/05/22 01:23:36;;;;;;;1.33;0.80;;;12.20;94.30;;;;;;6203123;28;20054;-80
2022/05/22 01:26:38;;;;;;;1.88;1.00;;;12.20;94.40;;;;;;6203953;28;20508;-80
2022/05/22 01:29:40;;;;;;;1.42;0.90;;;12.20;94.50;;;;;;6202074;28;20043;-78
2022/05/22 01:32:44;;;;;;;2.13;1.08;;;12.10;94.60;;;;;;6202196;28;20043;-81
2022/05/22 01:35:46;;;;;;;1.77;1.02;;;12.10;94.60;;;;;;6203309;28;20052;-80
2022/05/22 01:38:49;;;;;;;3.40;0.95;;;12.10;94.60;;;;;;6203164;28;20136;-79
2022/05/22 01:41:51;;;;;;;1.70;0.82;;;12.20;94.60;;;;;;6203486;28;20069;-80
2022/05/22 01:44:53;;;;;;;6.85;1.30;;;12.10;94.60;;;;;;6204215;28;20046;-78
2022/05/22 01:47:54;;;;;;;1.45;0.80;;;12.10;94.60;;;;;;6203679;28;20057;-80
2022/05/22 01:50:56;;;;;;;2.17;0.90;;;12.00;94.50;;;;;;6203541;28;20419;-80
2022/05/22 01:54:01;;;;;;;1.60;0.93;;;12.00;94.50;;;;;;6203347;28;20633;-79
2022/05/22 01:57:04;;;;;;;2.40;1.20;;;11.90;94.60;;;;;;6203583;28;20382;-78
2022/05/22 02:00:08;;;;;;;1.95;1.00;;;11.90;94.70;;;;;;6203686;28;20057;-80
2022/05/22 02:03:10;;;;;;;1.95;1.10;;;11.90;94.80;;;;;;6202162;28;20050;-80
2022/05/22 02:06:12;;;;;;;1.98;1.00;;;12.00;94.80;;;;;;6201044;28;20077;-79
2022/05/22 02:09:15;;;;;;;2.95;0.93;;;12.00;94.80;;;;;;6200774;28;20052;-79
2022/05/22 02:12:17;;;;;;;1.40;0.90;;;12.10;94.80;;;;;;6201094;28;20050;-80
2022/05/22 02:15:19;;;;;;;4.25;1.02;;;12.10;94.60;;;;;;6201353;28;20057;-78
2022/05/22 02:18:22;;;;;;;1.90;0.88;;;12.10;94.60;;;;;;6202150;28;20058;-79
2022/05/22 02:21:24;;;;;;;2.83;1.50;;;12.10;94.50;;;;;;6202072;28;20124;-79
2022/05/22 02:24:27;;;;;;;1.92;1.17;;;12.10;94.50;;;;;;6200518;28;20046;-79
2022/05/22 02:27:28;;;;;;;4.15;1.35;;;12.10;94.40;;;;;;6201837;28;20054;-79
2022/05/22 02:30:36;;;;;;;1.77;0.80;;;12.20;94.40;;;;;;6200811;28;20544;-80
2022/05/22 02:33:38;;;;;;;1.67;0.82;;;12.20;94.30;;;;;;6200165;28;20403;-79
2022/05/22 02:36:40;;;;;;;1.17;0.90;;;12.20;94.20;;;;;;6200256;28;20417;-80
2022/05/22 02:39:43;;;;;;;1.05;0.88;;;12.20;94.30;;;;;;6199440;28;20054;-81
2022/05/22 02:42:47;;;;;;;3.30;1.15;;;12.20;94.10;;;;;;6200335;28;20053;-80
2022/05/22 02:45:49;;;;;;;2.90;1.20;;;12.10;94.20;;;;;;6199739;28;20149;-80
2022/05/22 02:48:51;;;;;;;3.08;1.13;;;12.10;94.30;;;;;;6200563;28;20043;-79
2022/05/22 02:51:53;;;;;;;5.90;0.80;;;12.10;94.40;;;;;;6200121;28;20050;-79
2022/05/22 02:54:56;;;;;;;2.50;0.90;;;12.00;94.40;;;;;;6201774;28;20054;-79
2022/05/22 02:57:58;;;;;;;2.08;0.80;;;11.90;94.40;;;;;;6200978;28;20522;-80
2022/05/22 03:01:00;;;;;;;1.95;1.20;;;11.90;94.60;;;;;;6201938;28;20042;-80
2022/05/22 03:04:01;;;;;;;0.85;0.70;;;11.80;94.60;;;;;;6200808;28;20053;-79
2022/05/22 03:07:04;;;;;;;2.90;0.98;;;11.80;94.70;;;;;;6202757;28;20054;-80
2022/05/22 03:10:10;;;;;;;2.90;1.17;;;11.70;94.80;;;;;;6200510;28;20074;-79
2022/05/22 03:13:12;;;;;;;1.58;1.02;;;11.70;94.80;;;;;;6204230;28;20049;-79
2022/05/22 03:16:15;;;;;;;1.83;1.20;;;11.70;95.00;;;;;;6205573;28;20046;-80
2022/05/22 03:19:17;;;;;;;1.25;0.77;;;11.60;95.00;;;;;;6205679;28;20057;-80
2022/05/22 03:22:19;;;;;;;2.13;1.13;;;11.50;94.90;;;;;;6206231;28;20057;-81
2022/05/22 03:25:22;;;;;;;4.22;0.90;;;11.40;94.80;;;;;;6204873;28;20049;-78
2022/05/22 03:28:24;;;;;;;2.47;0.80;;;11.40;95.00;;;;;;6204727;28;20560;-80
2022/05/22 03:31:26;;;;;;;2.20;1.08;;;11.30;95.10;;;;;;6205161;28;20050;-79
2022/05/22 03:34:28;;;;;;;1.42;0.75;;;11.20;95.10;;;;;;6205809;28;20097;-79
2022/05/22 03:37:29;;;;;;;1.98;0.90;;;11.20;95.10;;;;;;6204739;28;20145;-80
2022/05/22 03:40:32;;;;;;;3.60;0.95;;;11.20;95.10;;;;;;6205340;28;20054;-79
2022/05/22 03:43:34;;;;;;;6.25;1.05;;;11.20;95.10;;;;;;6204776;28;20070;-79
2022/05/22 03:46:36;;;;;;;2.63;1.40;;;11.20;95.00;;;;;;6204905;28;20129;-79
2022/05/22 03:49:38;;;;;;;8.18;2.45;;;11.10;95.00;;;;;;6203909;28;20137;-80
2022/05/22 03:52:43;;;;;;;1.33;0.80;;;11.20;95.10;;;;;;6204961;28;20051;-78
2022/05/22 03:55:47;;;;;;;1.85;0.98;;;11.20;95.10;;;;;;6204762;28;20496;-79
2022/05/22 03:58:50;;;;;;;1.77;0.80;;;11.20;95.00;;;;;;6204049;28;20114;-79
2022/05/22 04:01:52;;;;;;;1.15;0.98;;;11.20;95.00;;;;;;6204428;28;20053;-78
2022/05/22 04:04:54;;;;;;;3.47;0.90;;;11.30;94.90;;;;;;6205316;28;20046;-77
2022/05/22 04:07:55;;;;;;;1.75;0.90;;;11.30;94.70;;;;;;6204929;28;20442;-78
2022/05/22 04:11:06;;;;;;;0.80;0.50;;;11.30;94.60;;;;;;6205496;28;20082;-80
2022/05/22 04:14:09;;;;;;;2.25;1.00;;;11.50;94.50;;;;;;6205685;28;20049;-78
2022/05/22 04:17:11;;;;;;;4.30;0.93;;;11.50;94.50;;;;;;6204212;28;20529;-79
2022/05/22 04:20:13;;;;;;;1.05;0.85;;;11.60;94.40;;;;;;6203743;28;20049;-80
2022/05/22 04:26:35;;;;;;;2.67;1.02;;;11.90;94.10;;;;;;6205460;28;20140;-80
2022/05/22 04:29:37;;;;;;;2.65;0.70;;;12.30;93.80;;;;;;6204311;28;20070;-80
2022/05/22 04:32:39;;;;;;;6.45;1.10;;;12.70;93.20;;;;;;6204938;28;20042;-78
2022/05/22 04:35:42;;;;;;;3.17;0.82;;;12.80;92.80;;;;;;6203506;28;20506;-78
2022/05/22 04:38:44;;;;;;;5.30;0.93;;;13.00;92.70;;;;;;6203692;28;20081;-78
2022/05/22 04:41:47;;;;;;;3.47;0.68;;;13.20;92.50;;;;;;6203392;28;20061;-79
2022/05/22 04:44:48;;;;;;;2.33;0.85;;;13.30;92.40;;;;;;6201908;28;20576;-78
2022/05/22 04:47:50;;;;;;;1.50;0.82;;;13.50;92.30;;;;;;6202717;28;20664;-78
2022/05/22 04:50:53;;;;;;;2.75;0.65;;;13.90;91.90;;;;;;6203485;28;20088;-79
2022/05/22 04:53:55;;;;;;;1.67;0.75;;;14.60;91.00;;;;;;6202016;28;20046;-80
2022/05/22 04:56:59;;;;;;;1.25;0.80;;;15.30;89.90;;;;;;6203552;28;20050;-80
2022/05/22 05:00:01;;;;;;;1.23;0.70;;;16.50;87.00;;;;;;6203253;28;20141;-80
2022/05/22 05:03:03;;;;;;;2.70;1.17;;;17.90;82.60;;;;;;6204128;28;20133;-79
2022/05/22 05:06:05;;;;;;;0.93;0.63;;;19.40;78.20;;;;;;6204431;28;20050;-79
2022/05/22 05:09:06;;;;;;;2.88;0.82;;;20.50;73.40;;;;;;6200547;28;20050;-79
2022/05/22 05:12:10;;;;;;;1.30;0.70;;;20.10;72.40;;;;;;6201141;28;20046;-80
2022/05/22 05:15:15;;;;;;;0.90;0.50;;;20.10;73.60;;;;;;6201614;28;20132;-80
2022/05/22 05:18:16;;;;;;;2.70;0.73;;;21.30;71.60;;;;;;6203023;28;20054;-81
2022/05/22 05:21:19;;;;;;;3.15;0.75;;;23.30;66.20;;;;;;6202520;28;20042;-80
2022/05/22 05:24:21;;;;;;;1.67;0.60;;;24.80;60.90;;;;;;6202608;28;20045;-81
2022/05/22 05:27:24;;;;;;;1.52;0.90;;;25.80;57.90;;;;;;6202469;28;20055;-82
2022/05/22 05:30:26;;;;;;;5.75;1.00;;;27.10;54.50;;;;;;6202087;28;20529;-80
2022/05/22 05:33:28;;;;;;;1.13;0.57;;;28.30;50.90;;;;;;6201109;28;20050;-80
2022/05/22 05:36:30;;;;;;;2.83;0.90;;;29.40;47.70;;;;;;6202317;28;20556;-81
2022/05/22 05:39:32;;;;;;;2.58;1.27;;;30.50;45.20;;;;;;6201811;28;20050;-81
2022/05/22 05:42:36;;;;;;;3.97;0.90;;;31.50;43.10;;;;;;6201950;28;20057;-80
2022/05/22 05:45:38;;;;;;;1.80;0.90;;;32.20;41.20;;;;;;6202553;28;20050;-80
2022/05/22 05:48:40;;;;;;;4.72;1.67;;;32.50;40.80;;;;;;6201922;28;20094;-80
2022/05/22 05:51:42;;;;;;;6.05;1.42;;;33.40;40.30;;;;;;6202332;28;20046;-81
2022/05/22 05:54:44;;;;;;;7.88;1.48;;;34.50;38.60;;;;;;6202306;28;20054;-80
2022/05/22 05:57:47;;;;;;;5.35;1.38;;;35.60;36.90;;;;;;6201270;28;20054;-81
2022/05/22 06:00:49;;;;;;;4.07;1.45;;;36.50;34.90;;;;;;6200990;28;20042;-81
2022/05/22 06:03:51;;;;;;;4.93;1.38;;;37.00;33.80;;;;;;6200831;28;20030;-81
2022/05/22 06:06:53;;;;;;;4.07;1.95;;;37.30;33.60;;;;;;6200822;28;20053;-83
2022/05/22 06:09:55;;;;;;;7.15;1.38;;;37.60;32.70;;;;;;6199953;28;20056;-83
2022/05/22 06:12:58;;;;;;;3.95;1.60;;;37.90;32.20;;;;;;6200363;28;20129;-84
2022/05/22 06:16:00;;;;;;;2.40;1.17;;;38.20;31.60;;;;;;6200028;28;20053;-82
2022/05/22 06:19:01;;;;;;;1.15;0.95;;;38.10;31.20;;;;;;6199313;28;20429;-85
2022/05/22 06:22:04;;;;;;;7.80;1.48;;;37.70;31.50;;;;;;6199820;28;20057;-84
2022/05/22 06:25:08;;;;;;;3.15;1.45;;;37.50;32.00;;;;;;6200391;28;20043;-83
2022/05/22 06:28:11;;;;;;;3.83;1.13;;;37.10;32.30;;;;;;6199397;28;20048;-83
2022/05/22 06:31:14;;;;;;;2.78;1.05;;;36.80;32.80;;;;;;6200561;28;20058;-82
2022/05/22 06:34:15;;;;;;;6.85;1.35;;;36.50;33.30;;;;;;6201130;28;20052;-85
2022/05/22 06:37:21;;;;;;;5.53;1.20;;;36.10;33.70;;;;;;6200379;28;20458;-82
2022/05/22 06:40:23;;;;;;;3.50;1.13;;;36.10;33.60;;;;;;6200189;28;20126;-84
2022/05/22 06:43:26;;;;;;;2.60;0.95;;;36.50;33.50;;;;;;6200616;28;20060;-83
2022/05/22 06:46:33;;;;;;;2.50;1.27;;;37.00;33.00;;;;;;6201384;28;20051;-81
2022/05/22 06:49:35;;;;;;;1.65;0.93;;;37.80;32.00;;;;;;6204489;28;20138;-84
2022/05/22 06:52:37;;;;;;;5.78;1.90;;;38.10;31.20;;;;;;6204753;28;20052;-84
2022/05/22 06:55:40;;;;;;;4.15;0.98;;;37.90;31.10;;;;;;6204936;28;20065;-83
2022/05/22 06:58:43;;;;;;;3.50;1.10;;;37.80;31.10;;;;;;6204098;28;20061;-83
2022/05/22 07:01:45;;;;;;;2.92;1.08;;;38.20;31.00;;;;;;6204245;28;20165;-83
2022/05/22 07:04:47;;;;;;;2.10;1.27;;;38.90;30.60;;;;;;6204766;28;20046;-85
2022/05/22 07:07:49;;;;;;;1.25;0.88;;;39.20;30.00;;;;;;6203963;28;20181;-80
2022/05/22 07:14:13;;;;;;;2.58;1.00;;;39.10;30.30;;;;;;6206571;28;20125;-81
2022/05/22 07:17:21;;;;;;;3.40;1.08;;;39.60;29.90;;;;;;6206588;28;20192;-85
2022/05/22 07:20:23;;;;;;;4.00;1.17;;;39.90;29.70;;;;;;6206459;28;20043;-81
2022/05/22 07:23:25;;;;;;;1.35;0.80;;;40.50;29.20;;;;;;6206980;28;20165;-81
2022/05/22 07:26:27;;;;;;;3.20;0.98;;;40.90;28.60;;;;;;6207089;28;20493;-82
2022/05/22 07:29:30;;;;;;;2.67;0.98;;;40.30;28.40;;;;;;6205943;28;20046;-81
2022/05/22 07:32:32;;;;;;;3.97;1.08;;;40.20;28.60;;;;;;6206269;28;20046;-82
2022/05/22 07:35:34;;;;;;;2.65;1.02;;;40.50;28.60;;;;;;6207195;28;20058;-83
2022/05/22 07:38:35;;;;;;;5.32;1.00;;;41.20;28.40;;;;;;6207014;28;20046;-82
2022/05/22 07:41:37;;;;;;;4.30;1.00;;;41.80;27.60;;;;;;6206276;28;20062;-83
2022/05/22 07:44:40;;;;;;;2.42;1.00;;;42.10;27.40;;;;;;6207327;28;20056;-83
2022/05/22 07:47:42;;;;;;;6.30;0.80;;;42.40;27.40;;;;;;6168252;28;20099;-82
2022/05/22 07:50:44;;;;;;;2.42;0.88;;;42.70;27.00;;;;;;6218823;28;20058;-79
2022/05/22 07:53:46;;;;;;;3.28;1.20;;;42.70;26.90;;;;;;6231564;28;20468;-80
2022/05/22 07:56:48;;;;;;;3.08;0.85;;;41.60;27.10;;;;;;6231765;28;20132;-82
2022/05/22 07:59:51;;;;;;;2.20;1.00;;;38.80;28.50;;;;;;6234958;28;20124;-83
2022/05/22 08:02:52;;;;;;;3.47;1.20;;;36.20;30.10;;;;;;6238287;28;20115;-83
2022/05/22 08:05:55;;;;;;;4.35;1.45;;;34.20;32.50;;;;;;6237714;28;20168;-85
2022/05/22 08:08:57;;;;;;;1.75;1.00;;;32.50;34.20;;;;;;6236340;28;20068;-85
2022/05/22 08:11:58;;;;;;;2.63;0.63;;;31.50;35.60;;;;;;6235661;28;20046;-85
2022/05/22 08:15:01;;;;;;;1.60;0.60;;;30.50;36.90;;;;;;6236628;28;20497;-85
2022/05/22 08:18:04;;;;;;;2.05;0.57;;;29.80;38.40;;;;;;6237570;28;20041;-80
2022/05/22 08:21:07;;;;;;;1.50;0.65;;;29.20;39.00;;;;;;6240557;28;20046;-83
2022/05/22 08:24:09;;;;;;;4.18;0.93;;;28.80;39.30;;;;;;6237914;28;20044;-81
2022/05/22 08:27:11;;;;;;;2.20;0.85;;;28.20;40.40;;;;;;6235301;28;20050;-84
2022/05/22 08:30:16;;;;;;;1.63;0.65;;;28.00;40.80;;;;;;6234995;28;20528;-83
2022/05/22 08:33:18;;;;;;;3.67;0.68;;;27.80;40.90;;;;;;6234951;28;20061;-82
2022/05/22 08:36:20;;;;;;;1.55;0.70;;;27.70;41.50;;;;;;6235831;28;20053;-83
2022/05/22 08:39:22;;;;;;;1.33;0.68;;;27.50;41.60;;;;;;6234146;28;20140;-83
2022/05/22 08:42:31;;;;;;;1.65;0.50;;;27.50;42.20;;;;;;6234955;28;20066;-83
2022/05/22 08:45:41;;;;;;;3.38;0.82;;;27.50;42.60;;;;;;6233857;28;20123;-80
2022/05/22 08:48:48;;;;;;;5.75;1.13;;;27.50;42.00;;;;;;6230848;28;20048;-84
2022/05/22 08:51:54;;;;;;;1.40;0.60;;;27.70;41.60;;;;;;6231897;28;20052;-84
2022/05/22 08:55:06;;;;;;;2.40;1.00;;;27.90;41.50;;;;;;6232092;28;20053;-85
2022/05/22 09:01:46;;;;;;;3.78;0.90;;;28.20;40.00;;;;;;6230309;28;20497;-84
2022/05/22 09:04:53;;;;;;;2.45;0.82;;;28.40;40.30;;;;;;6230152;28;20053;-82
2022/05/22 09:07:59;;;;;;;1.45;0.47;;;28.50;40.20;;;;;;6232109;28;20050;-81
2022/05/22 09:11:08;;;;;;;3.90;0.80;;;28.40;39.60;;;;;;6232634;28;20054;-85
2022/05/22 09:14:18;;;;;;;0.90;0.60;;;28.50;40.30;;;;;;6231263;28;20052;-84
2022/05/22 09:17:26;;;;;;;1.63;0.57;;;28.60;40.70;;;;;;6231311;28;20112;-85
2022/05/22 09:20:39;;;;;;;1.10;0.50;;;28.80;39.40;;;;;;6218414;28;20053;-82
2022/05/22 09:23:57;;;;;;;5.07;0.30;;;28.90;37.70;;;;;;6209179;28;20066;-82
2022/05/22 09:27:08;;;;;;;0.88;0.32;;;28.90;36.40;;;;;;6210805;28;20046;-81
2022/05/22 09:30:16;;;;;;;1.00;0.50;;;28.90;36.10;;;;;;6210844;28;20061;-81
2022/05/22 09:33:29;;;;;;;3.25;0.38;;;29.10;36.80;;;;;;6236118;28;20065;-82
2022/05/22 09:36:42;;;;;;;1.70;0.60;;;29.40;35.90;;;;;;6222474;28;20142;-83
2022/05/22 09:40:03;;;;;;;0.68;0.32;;;29.30;35.50;;;;;;6219372;28;20053;-81
2022/05/22 09:43:25;;;;;;;2.55;0.80;;;29.30;37.10;;;;;;6232835;28;20053;-82
2022/05/22 09:46:44;;;;;;;1.60;0.65;;;29.30;38.30;;;;;;6231208;28;20054;-81
2022/05/22 09:50:02;;;;;;;3.22;0.60;;;29.40;38.30;;;;;;6229653;28;20053;-81
2022/05/22 09:53:08;;;;;;;1.25;0.57;;;29.60;37.60;;;;;;6231291;28;20060;-81
2022/05/22 09:56:18;;;;;;;2.72;0.98;;;29.60;37.90;;;;;;6230032;28;20048;-82
2022/05/22 09:59:49;;;;;;;3.40;0.95;;;29.80;37.90;;;;;;6230167;28;20462;-82
2022/05/22 10:03:01;;;;;;;1.67;0.60;;;30.50;37.60;;;;;;6232409;28;20054;-82
2022/05/22 10:06:12;;;;;;;5.07;1.00;;;31.50;36.60;;;;;;6205002;28;20053;-82
2022/05/22 10:09:27;;;;;;;1.90;0.88;;;32.00;35.50;;;;;;6202967;28;20050;-86
2022/05/22 10:12:38;;;;;;;3.67;0.50;;;32.10;34.10;;;;;;6225337;28;20128;-83
2022/05/22 10:15:55;;;;;;;1.10;0.45;;;32.00;33.90;;;;;;6207105;28;20050;-81
2022/05/22 10:19:16;;;;;;;1.58;0.50;;;31.40;34.40;;;;;;6217514;28;20084;-83
2022/05/22 10:22:27;;;;;;;1.88;0.70;;;31.00;34.60;;;;;;6217952;28;20401;-82
2022/05/22 10:25:41;;;;;;;1.92;0.73;;;30.80;34.40;;;;;;6212012;28;20108;-82
2022/05/22 10:28:48;;;;;;;4.95;0.75;;;30.50;34.40;;;;;;6212969;28;20046;-84
2022/05/22 10:31:58;;;;;;;2.90;0.45;;;30.40;35.00;;;;;;6210511;28;20720;-83
2022/05/22 10:35:06;;;;;;;2.65;0.60;;;30.60;34.70;;;;;;6213093;28;20053;-83
2022/05/22 10:38:13;;;;;;;3.70;0.75;;;30.80;34.20;;;;;;6217722;28;20046;-83
2022/05/22 10:44:38;;;;;;;3.10;0.73;;;31.20;34.00;;;;;;6213013;28;19917;-83
2022/05/22 10:47:40;;;;;;;2.40;0.30;;;31.10;34.00;;;;;;6226196;28;20046;-83
2022/05/22 10:50:52;;;;;;;1.83;0.50;;;31.10;33.80;;;;;;6230507;28;20065;-82
2022/05/22 10:53:58;;;;;;;4.13;0.43;;;31.10;34.00;;;;;;6228445;28;20097;-83
2022/05/22 10:57:11;;;;;;;1.80;0.40;;;31.30;33.40;;;;;;6229136;28;20052;-83
2022/05/22 11:00:16;;;;;;;0.77;0.30;;;31.50;33.30;;;;;;6228956;28;20062;-82
2022/05/22 11:03:18;;;;;;;1.27;0.38;;;31.70;33.00;;;;;;6226911;28;20140;-85
2022/05/22 11:06:21;;;;;;;1.10;0.30;;;31.90;32.20;;;;;;6227429;28;20133;-81
2022/05/22 11:09:26;;;;;;;4.85;0.50;;;32.00;32.70;;;;;;6227851;28;20050;-82
2022/05/22 11:12:28;;;;;;;2.83;0.45;;;32.10;32.80;;;;;;6232208;28;20076;-84
2022/05/22 11:15:33;;;;;;;1.70;0.35;;;32.00;32.30;;;;;;6231057;28;20060;-84
2022/05/22 11:18:35;;;;;;;1.75;0.43;;;31.70;32.60;;;;;;6228571;28;20054;-83
2022/05/22 11:21:47;;;;;;;3.42;0.52;;;31.60;32.90;;;;;;6226074;28;20046;-84
2022/05/22 11:25:03;;;;;;;4.35;0.40;;;31.80;32.60;;;;;;6219176;28;20110;-86
2022/05/22 11:28:26;;;;;;;1.17;0.35;;;32.10;31.50;;;;;;6226935;28;20046;-81
2022/05/22 11:31:41;;;;;;;0.98;0.20;;;32.30;31.30;;;;;;6227811;28;20074;-82
2022/05/22 11:35:10;;;;;;;2.17;0.40;;;32.30;30.30;;;;;;6233180;28;20131;-82
2022/05/22 11:38:43;;;;;;;1.75;0.50;;;32.10;30.50;;;;;;6233028;28;20070;-82
2022/05/22 11:41:51;;;;;;;0.35;0.20;;;32.20;29.90;;;;;;6234801;28;20050;-81
2022/05/22 11:45:06;;;;;;;0.28;0.15;;;32.30;30.00;;;;;;6233288;28;20101;-81
2022/05/22 11:48:29;;;;;;;1.67;0.45;;;32.70;30.40;;;;;;6232897;28;20056;-85
2022/05/22 11:51:59;;;;;;;2.13;0.43;;;33.10;31.20;;;;;;6232649;28;20106;-84
2022/05/22 11:55:11;;;;;;;1.08;0.30;;;33.40;30.30;;;;;;6234416;28;20053;-86
2022/05/22 11:58:22;;;;;;;1.15;0.30;;;33.30;30.90;;;;;;6232693;28;20050;-85
2022/05/22 12:01:32;;;;;;;1.55;0.43;;;33.10;31.50;;;;;;6230382;28;20665;-82
2022/05/22 12:05:04;;;;;;;4.20;0.47;;;33.20;31.60;;;;;;6236089;23;20045;-83
2022/05/22 12:08:29;;;;;;;1.60;0.40;;;33.30;31.60;;;;;;6230602;28;20298;-82
2022/05/22 12:11:36;;;;;;;2.83;1.17;;;33.20;31.70;;;;;;6231341;28;20181;-83
2022/05/22 12:14:54;;;;;;;2.83;0.88;;;33.20;31.50;;;;;;6227361;28;20100;-84
2022/05/22 12:18:04;;;;;;;2.25;0.93;;;33.40;31.10;;;;;;6203169;28;20520;-84
2022/05/22 12:21:13;;;;;;;4.28;0.60;;;33.70;30.90;;;;;;6226517;28;20053;-83
2022/05/22 12:24:35;;;;;;;3.42;0.80;;;33.90;30.50;;;;;;6231513;23;20077;-83
2022/05/22 12:28:06;;;;;;;;;;;;;;;;;;;;;
2022/05/22 12:31:54;;;;;;;2.65;0.45;;;34.20;29.60;;;;;;6220577;28;20046;-83
2022/05/22 12:35:00;;;;;;;2.10;0.70;;;33.30;29.60;;;;;;6151792;28;20070;-84
2022/05/22 12:38:20;;;;;;;2.70;0.50;;;32.90;30.90;;;;;;6176232;28;20063;-84
2022/05/22 12:42:28;;;;;;;5.00;0.80;;;33.20;32.00;;;;;;6177113;28;20205;-85
2022/05/22 12:49:07;;;;;;;5.22;3.20;;;33.90;31.10;;;;;;6109883;28;20053;-84
2022/05/22 12:52:27;;;;;;;2.63;0.60;;;34.10;30.70;;;;;;6194927;28;20140;-85
2022/05/22 12:55:32;;;;;;;1.63;0.38;;;34.20;30.50;;;;;;6202966;28;20133;-84
2022/05/22 12:58:39;;;;;;;2.03;0.50;;;34.00;29.90;;;;;;6201053;28;20050;-84
2022/05/22 13:01:42;;;;;;;2.72;0.55;;;33.70;30.90;;;;;;6203034;28;20474;-85
2022/05/22 13:04:55;;;;;;;2.10;0.70;;;33.60;31.30;;;;;;6201265;28;20042;-84
2022/05/22 13:08:39;;;;;;;1.60;0.50;;;33.70;31.60;;;;;;6205165;28;20473;-88
2022/05/22 13:15:16;;;;;;;0.57;0.38;;;33.80;31.70;;;;;;6192416;28;20051;-85
2022/05/22 13:18:32;;;;;;;1.55;0.45;;;33.30;32.20;;;;;;6199973;28;20494;-84
2022/05/22 13:21:43;;;;;;;1.45;0.40;;;32.90;32.40;;;;;;6199661;28;20056;-85
2022/05/22 13:24:52;;;;;;;4.30;0.60;;;32.50;33.30;;;;;;6198481;28;20043;-85
2022/05/22 13:38:53;;;;;;;2.75;0.73;;;32.90;32.30;;;;;;6067654;29;20063;-86
2022/05/22 13:43:03;;;;;;;1.20;0.50;;;33.20;32.00;;;;;;6137319;28;20133;-87
2022/05/22 13:54:49;;;;;;;1.98;0.52;;;33.50;31.50;;;;;;6099349;29;20063;-84
2022/05/22 13:57:56;;;;;;;2.50;0.55;;;33.90;31.20;;;;;;6130447;28;20481;-85
2022/05/22 14:01:03;;;;;;;3.15;0.50;;;34.10;30.50;;;;;;6198842;28;20124;-86
2022/05/22 14:04:07;;;;;;;3.37;0.57;;;34.10;30.10;;;;;;6188353;28;20046;-85
2022/05/22 14:07:22;;;;;;;2.58;0.70;;;33.90;30.30;;;;;;6199790;28;20057;-84
2022/05/22 14:10:34;;;;;;;4.22;0.70;;;33.80;30.20;;;;;;6202416;28;20058;-85
2022/05/22 14:13:52;;;;;;;2.20;0.30;;;33.70;30.10;;;;;;6190717;28;20050;-85
2022/05/22 14:17:04;;;;;;;2.17;0.30;;;33.50;30.00;;;;;;6200886;28;20517;-84
2022/05/22 14:27:56;;;;;;;4.13;0.85;;;32.90;29.40;;;;;;6183279;28;20038;-84
2022/05/22 14:30:59;;;;;;;5.30;0.50;;;32.70;29.00;;;;;;6201501;28;20417;-84
2022/05/22 14:34:02;;;;;;;1.55;0.38;;;32.60;29.50;;;;;;6199852;28;20043;-83
2022/05/22 14:37:05;;;;;;;3.58;0.50;;;32.50;28.70;;;;;;6199194;28;20652;-84
2022/05/22 14:40:17;;;;;;;1.65;0.40;;;32.40;28.80;;;;;;6199615;28;20054;-85
2022/05/22 14:43:22;;;;;;;3.08;0.50;;;32.30;28.80;;;;;;6198157;28;20414;-84
2022/05/22 14:46:28;;;;;;;1.27;0.68;;;32.30;28.80;;;;;;6199625;28;20046;-83
2022/05/22 14:49:34;;;;;;;0.85;0.32;;;32.10;29.10;;;;;;6199983;28;20058;-82
2022/05/22 14:52:40;;;;;;;3.58;0.50;;;31.80;29.10;;;;;;6213513;28;20068;-81
2022/05/22 14:55:47;;;;;;;0.63;0.25;;;31.50;29.40;;;;;;6206613;28;20050;-87
2022/05/22 14:58:58;;;;;;;2.78;0.38;;;31.30;29.60;;;;;;6206245;28;20050;-84
2022/05/22 15:02:02;;;;;;;0.98;0.50;;;31.10;30.30;;;;;;6202183;28;20085;-84
2022/05/22 15:05:08;;;;;;;3.28;1.00;;;30.90;30.00;;;;;;6202203;28;20535;-83
2022/05/22 15:08:47;;;;;;;3.83;0.40;;;30.70;29.50;;;;;;6200661;28;20050;-85
2022/05/22 15:16:08;;;;;;;;;;;30.20;30.00;;;;;;6103093;28;20053;-85
2022/05/22 15:26:17;;;;;;;2.05;0.47;;;29.20;33.40;;;;;;6201697;28;20046;-85
2022/05/22 15:29:26;;;;;;;1.42;0.47;;;29.00;33.80;;;;;;6200098;28;20129;-84
2022/05/22 15:32:30;;;;;;;1.92;1.10;;;28.70;35.90;;;;;;6203009;28;20050;-85
2022/05/22 15:35:32;;;;;;;1.20;0.40;;;28.50;38.00;;;;;;6201787;28;20050;-85
2022/05/22 15:38:38;;;;;;;0.68;0.45;;;28.10;36.70;;;;;;6201775;28;20046;-85
2022/05/22 15:42:14;;;;;;;3.90;0.73;;;27.80;38.40;;;;;;6201492;28;20057;-87
2022/05/22 15:45:21;;;;;;;0.77;0.47;;;27.50;38.50;;;;;;6201655;28;20053;-86
2022/05/22 15:52:30;;;;;;;12.55;1.42;;;27.30;46.80;;;;;;6198824;28;20042;-85
2022/05/22 15:55:34;;;;;;;1.77;0.40;;;27.00;47.10;;;;;;6203986;28;20046;-86
2022/05/22 15:58:36;;;;;;;1.60;0.32;;;26.90;45.70;;;;;;6203589;28;20054;-84
2022/05/22 16:01:40;;;;;;;2.05;0.60;;;26.90;47.10;;;;;;6204401;28;20042;-84
2022/05/22 16:04:53;;;;;;;1.15;0.63;;;26.80;47.90;;;;;;6203171;28;20065;-85
2022/05/22 16:07:57;;;;;;;1.10;0.35;;;26.80;47.90;;;;;;6201358;28;20101;-84
2022/05/22 16:10:58;;;;;;;2.75;0.60;;;26.70;48.90;;;;;;6201705;28;20046;-84
2022/05/22 16:14:00;;;;;;;1.63;0.40;;;26.50;49.40;;;;;;6201168;28;20061;-84
2022/05/22 16:17:06;;;;;;;1.85;0.80;;;26.40;49.80;;;;;;6201246;28;20050;-87
2022/05/22 16:20:12;;;;;;;4.68;0.50;;;26.10;48.80;;;;;;6201153;28;20261;-84
2022/05/22 16:23:14;;;;;;;1.10;0.30;;;25.40;52.10;;;;;;6203356;28;20104;-84
2022/05/22 16:26:47;;;;;;;3.42;1.02;;;24.20;51.20;;;;;;6204641;28;20141;-87
2022/05/22 16:29:52;;;;;;;6.50;1.17;;;23.20;51.30;;;;;;6200670;28;20104;-84
2022/05/22 16:33:06;;;;;;;4.53;0.57;;;23.20;50.90;;;;;;6221587;28;20049;-85
2022/05/22 16:36:10;;;;;;;6.65;1.88;;;23.50;50.50;;;;;;6202069;28;20042;-85
2022/05/22 16:39:17;;;;;;;2.35;0.70;;;23.90;49.10;;;;;;6196855;28;20089;-86
2022/05/22 16:42:36;;;;;;;2.10;0.50;;;24.30;48.00;;;;;;6202860;28;20058;-83
2022/05/22 16:45:39;;;;;;;1.90;0.60;;;24.50;45.50;;;;;;6197411;28;20101;-84
2022/05/22 16:55:20;;;;;;;1.85;0.70;;;24.80;50.90;;;;;;6202586;28;20046;-85
2022/05/22 16:58:25;;;;;;;1.52;0.70;;;25.00;53.10;;;;;;6208195;28;20521;-83
2022/05/22 17:01:27;;;;;;;18.65;2.67;;;25.10;53.70;;;;;;6206708;28;20050;-84
2022/05/22 17:15:54;;;;;;;1.65;0.38;;;25.50;56.80;;;;;;6151912;28;20055;-83
2022/05/22 17:18:57;;;;;;;0.95;0.60;;;25.60;58.40;;;;;;6174997;28;20077;-83
2022/05/22 17:22:02;;;;;;;4.15;0.40;;;25.50;57.40;;;;;;6206000;28;20422;-84
2022/05/22 17:25:07;;;;;;;1.90;0.50;;;25.50;57.40;;;;;;6209181;28;20057;-84
2022/05/22 17:28:08;;;;;;;0.45;0.20;;;25.60;58.50;;;;;;6219718;28;20060;-85
2022/05/22 17:31:12;;;;;;;3.50;1.10;;;25.60;59.00;;;;;;6209412;28;20050;-84
2022/05/22 17:34:14;;;;;;;1.35;0.50;;;25.50;59.00;;;;;;6206995;28;20081;-84
2022/05/22 17:37:21;;;;;;;2.83;0.30;;;25.40;59.60;;;;;;6208215;28;20050;-84